Time;durP1;ratioP1;P1;durP2;ratioP2;P2;SDS_P1;SDS_P2;PMS_P1;PMS_P2;Temp;Humidity;BMP_temperature;BMP_pressure;BME280_temperature;BME280_humidity;BME280_pressure;Samples;Min_cycle;Max_cycle;Signal;HPM_P1;HPM_P2
2021/04/25 00:01:42;;;;;;;3.90;2.70;;;25.90;50.90;;;;;;4994024;28;20483;-81
2021/04/25 00:04:14;;;;;;;3.67;2.43;;;25.90;51.00;;;;;;4994133;28;20448;-82
2021/04/25 00:06:40;;;;;;;4.63;2.77;;;26.00;51.00;;;;;;4994259;28;20453;-81
2021/04/25 00:09:06;;;;;;;2.93;2.47;;;25.80;50.90;;;;;;4994040;28;20480;-81
2021/04/25 00:11:32;;;;;;;2.63;2.20;;;25.80;50.90;;;;;;4993567;28;20446;-83
2021/04/25 00:14:00;;;;;;;3.13;2.17;;;25.80;50.90;;;;;;4994128;28;20468;-83
2021/04/25 00:16:28;;;;;;;2.80;2.50;;;25.80;51.00;;;;;;4994360;28;20475;-83
2021/04/25 00:18:54;;;;;;;4.47;2.53;;;25.80;51.00;;;;;;4994075;28;20456;-83
2021/04/25 00:21:22;;;;;;;4.47;1.93;;;25.80;51.00;;;;;;4994092;28;20459;-83
2021/04/25 00:23:49;;;;;;;3.67;2.40;;;25.80;51.00;;;;;;4994261;28;20844;-83
2021/04/25 00:26:15;;;;;;;3.33;2.63;;;25.80;51.00;;;;;;4993913;28;20467;-83
2021/04/25 00:28:41;;;;;;;3.40;2.47;;;25.80;51.00;;;;;;4994007;28;20824;-83
2021/04/25 00:31:09;;;;;;;2.53;2.20;;;25.80;51.20;;;;;;4993803;28;20972;-82
2021/04/25 00:33:35;;;;;;;2.23;1.90;;;25.80;51.00;;;;;;4994052;28;20444;-82
2021/04/25 00:36:01;;;;;;;3.27;2.57;;;25.80;51.10;;;;;;4993801;28;20451;-83
2021/04/25 00:38:28;;;;;;;3.47;2.13;;;25.80;51.00;;;;;;4993600;28;20507;-83
2021/04/25 00:40:54;;;;;;;3.50;1.90;;;25.80;51.00;;;;;;4993809;28;20451;-82
2021/04/25 00:43:21;;;;;;;3.00;2.40;;;25.80;51.00;;;;;;4993764;28;20456;-83
2021/04/25 00:45:47;;;;;;;2.50;2.30;;;25.80;51.00;;;;;;4993584;28;20475;-83
2021/04/25 00:48:15;;;;;;;2.33;2.13;;;25.80;51.00;;;;;;4993670;28;20455;-82
2021/04/25 00:50:41;;;;;;;2.27;2.00;;;25.80;51.10;;;;;;4993684;28;20575;-83
2021/04/25 00:53:08;;;;;;;2.30;2.10;;;25.80;51.00;;;;;;4993777;28;20440;-83
2021/04/25 00:55:35;;;;;;;3.77;2.17;;;25.70;51.00;;;;;;4993707;28;20440;-82
2021/04/25 00:58:03;;;;;;;2.30;1.97;;;25.70;51.00;;;;;;4993593;28;20449;-81
2021/04/25 01:00:31;;;;;;;3.70;2.60;;;25.70;51.00;;;;;;4993469;28;20480;-83
2021/04/25 01:02:57;;;;;;;3.03;2.00;;;25.70;51.10;;;;;;4993507;28;20962;-83
2021/04/25 01:05:25;;;;;;;4.00;1.93;;;25.70;51.10;;;;;;4993545;28;20437;-81
2021/04/25 01:07:51;;;;;;;2.50;2.30;;;25.70;51.10;;;;;;4993678;28;20450;-82
2021/04/25 01:10:19;;;;;;;2.50;2.30;;;25.70;51.10;;;;;;4993342;28;21064;-83
2021/04/25 01:12:46;;;;;;;3.50;2.17;;;25.70;51.10;;;;;;4993659;28;20444;-81
2021/04/25 01:15:14;;;;;;;2.63;2.30;;;25.70;51.10;;;;;;4993367;28;20472;-81
2021/04/25 01:17:44;;;;;;;2.43;2.23;;;25.70;51.10;;;;;;4993458;28;20450;-81
2021/04/25 01:20:12;;;;;;;2.27;1.87;;;25.70;51.10;;;;;;4993375;28;20442;-83
2021/04/25 01:22:39;;;;;;;2.77;2.30;;;25.70;51.10;;;;;;4994423;28;20542;-82
2021/04/25 01:25:08;;;;;;;2.77;2.17;;;25.70;51.10;;;;;;4997238;28;20450;-83
2021/04/25 01:27:35;;;;;;;3.03;2.10;;;25.70;51.10;;;;;;4996840;28;20447;-83
2021/04/25 01:30:02;;;;;;;2.23;1.97;;;25.70;51.10;;;;;;4996960;28;20847;-83
2021/04/25 01:32:29;;;;;;;2.50;2.30;;;25.70;51.10;;;;;;4996999;28;20452;-82
2021/04/25 01:34:55;;;;;;;2.40;2.20;;;25.70;51.10;;;;;;4996877;28;20456;-83
2021/04/25 01:37:22;;;;;;;2.93;1.97;;;25.60;51.10;;;;;;4996923;28;20437;-82
2021/04/25 01:39:50;;;;;;;2.30;2.10;;;25.60;51.10;;;;;;4996716;28;20455;-82
2021/04/25 01:42:16;;;;;;;3.97;2.33;;;25.70;51.20;;;;;;4996663;28;20454;-83
2021/04/25 01:44:43;;;;;;;3.47;2.33;;;25.70;51.10;;;;;;4996774;28;20456;-83
2021/04/25 01:47:09;;;;;;;2.57;1.93;;;25.60;51.10;;;;;;4996838;28;20440;-82
2021/04/25 01:49:35;;;;;;;2.60;2.40;;;25.60;51.10;;;;;;4996444;28;20490;-83
2021/04/25 01:52:02;;;;;;;2.70;2.13;;;25.60;51.10;;;;;;4996631;28;20479;-82
2021/04/25 01:54:29;;;;;;;2.70;2.17;;;25.60;51.10;;;;;;4996558;28;20447;-82
2021/04/25 01:56:56;;;;;;;2.50;2.00;;;25.60;51.10;;;;;;4996570;28;20455;-82
2021/04/25 01:59:22;;;;;;;2.30;2.07;;;25.60;51.30;;;;;;4996408;28;20448;-82
2021/04/25 02:01:49;;;;;;;2.00;1.90;;;25.60;51.10;;;;;;4996299;28;20480;-82
2021/04/25 02:04:16;;;;;;;2.43;2.00;;;25.70;51.10;;;;;;4996439;28;20466;-82
2021/04/25 02:06:43;;;;;;;2.07;1.87;;;25.80;51.20;;;;;;4996251;28;20436;-82
2021/04/25 02:09:10;;;;;;;3.77;2.07;;;25.60;51.10;;;;;;4996112;28;20566;-82
2021/04/25 02:11:36;;;;;;;2.40;2.00;;;25.70;51.10;;;;;;4996291;28;20440;-83
2021/04/25 02:14:04;;;;;;;2.77;2.40;;;25.60;51.10;;;;;;4996176;28;20468;-82
2021/04/25 02:16:31;;;;;;;2.10;1.90;;;25.60;51.10;;;;;;4996354;28;20471;-82
2021/04/25 02:18:57;;;;;;;2.43;1.93;;;25.60;51.10;;;;;;4996287;28;20451;-82
2021/04/25 02:21:24;;;;;;;2.53;2.30;;;25.60;51.10;;;;;;4996218;28;20539;-82
2021/04/25 02:23:50;;;;;;;2.50;2.30;;;25.60;51.10;;;;;;4995996;28;20513;-82
2021/04/25 02:26:16;;;;;;;2.10;1.90;;;25.70;51.10;;;;;;4996070;28;20493;-82
2021/04/25 02:28:43;;;;;;;4.63;2.00;;;25.60;51.00;;;;;;4996027;28;20448;-83
2021/04/25 02:31:10;;;;;;;4.20;2.10;;;25.60;51.10;;;;;;4995936;28;20495;-81
2021/04/25 02:33:36;;;;;;;1.80;1.70;;;25.70;51.10;;;;;;4995584;28;20456;-82
2021/04/25 02:36:04;;;;;;;2.60;2.27;;;25.60;51.10;;;;;;4995676;28;20501;-81
2021/04/25 02:38:31;;;;;;;3.00;2.80;;;25.60;51.10;;;;;;4996001;28;20440;-82
2021/04/25 02:40:57;;;;;;;3.57;2.40;;;25.70;51.10;;;;;;4995732;28;20498;-81
2021/04/25 02:43:24;;;;;;;2.07;1.87;;;25.60;51.10;;;;;;4995591;28;20451;-80
2021/04/25 02:45:50;;;;;;;2.30;2.10;;;25.70;51.10;;;;;;4995507;28;21032;-81
2021/04/25 02:48:17;;;;;;;2.30;2.10;;;25.60;51.10;;;;;;4995438;28;20446;-81
2021/04/25 02:50:44;;;;;;;2.20;1.93;;;25.60;51.10;;;;;;4995420;28;20488;-81
2021/04/25 02:53:12;;;;;;;2.63;2.30;;;25.60;51.10;;;;;;4995601;28;20518;-82
2021/04/25 02:55:39;;;;;;;2.10;1.90;;;25.60;51.10;;;;;;4995383;28;20455;-82
2021/04/25 02:58:06;;;;;;;2.67;2.07;;;25.60;51.10;;;;;;4995212;28;20436;-82
2021/04/25 03:00:34;;;;;;;2.60;2.37;;;25.60;51.10;;;;;;4995176;28;20827;-82
2021/04/25 03:03:00;;;;;;;2.80;2.60;;;25.60;51.10;;;;;;4995443;28;20792;-83
2021/04/25 03:05:28;;;;;;;2.43;2.23;;;25.70;51.10;;;;;;4995270;28;20444;-82
2021/04/25 03:07:54;;;;;;;2.80;2.50;;;25.70;51.10;;;;;;4995096;28;20450;-83
2021/04/25 03:10:22;;;;;;;1.70;1.53;;;25.70;51.10;;;;;;4994842;28;20488;-83
2021/04/25 03:12:49;;;;;;;2.10;1.90;;;25.60;51.10;;;;;;4995194;28;20479;-83
2021/04/25 03:15:17;;;;;;;2.10;1.90;;;25.60;51.10;;;;;;4995142;28;20456;-83
2021/04/25 03:17:43;;;;;;;1.83;1.73;;;25.60;51.10;;;;;;4995154;28;20433;-82
2021/04/25 03:20:12;;;;;;;2.57;2.37;;;25.60;51.10;;;;;;4995168;28;20451;-82
2021/04/25 03:22:39;;;;;;;2.13;1.93;;;25.60;51.10;;;;;;4995009;28;20436;-82
2021/04/25 03:25:07;;;;;;;2.30;2.10;;;25.60;51.10;;;;;;4995125;28;20455;-81
2021/04/25 03:27:34;;;;;;;2.13;1.93;;;25.60;51.20;;;;;;4994798;28;20453;-83
2021/04/25 03:30:01;;;;;;;2.10;1.90;;;25.60;51.10;;;;;;4994777;28;20488;-82
2021/04/25 03:32:27;;;;;;;2.27;2.07;;;25.60;51.10;;;;;;4994781;28;20951;-83
2021/04/25 03:34:53;;;;;;;2.53;2.20;;;25.60;51.10;;;;;;4994708;28;20448;-83
2021/04/25 03:37:20;;;;;;;2.30;2.00;;;25.60;51.10;;;;;;4994715;28;21013;-82
2021/04/25 03:39:47;;;;;;;2.13;1.93;;;25.60;51.10;;;;;;4994542;28;20539;-83
2021/04/25 03:42:13;;;;;;;2.63;2.17;;;25.60;51.10;;;;;;4994630;28;20454;-83
2021/04/25 03:44:40;;;;;;;2.30;2.10;;;25.60;51.10;;;;;;4994691;28;20460;-82
2021/04/25 03:47:06;;;;;;;2.50;2.30;;;25.60;51.20;;;;;;4994536;28;20452;-83
2021/04/25 03:49:32;;;;;;;2.40;2.20;;;25.60;51.10;;;;;;4994356;28;20871;-83
2021/04/25 03:51:58;;;;;;;2.27;1.70;;;25.60;51.20;;;;;;4994556;28;20440;-83
2021/04/25 03:54:25;;;;;;;2.30;2.07;;;25.80;51.20;;;;;;4994291;28;20452;-83
2021/04/25 03:56:52;;;;;;;2.53;1.90;;;25.60;51.10;;;;;;4994312;28;20440;-83
2021/04/25 03:59:19;;;;;;;2.30;2.10;;;25.60;51.10;;;;;;4994182;28;20495;-83
2021/04/25 04:01:45;;;;;;;2.37;2.17;;;25.60;51.20;;;;;;4994268;28;20569;-83
2021/04/25 04:04:11;;;;;;;1.70;1.60;;;25.60;51.10;;;;;;4994142;28;20439;-83
2021/04/25 04:06:37;;;;;;;2.20;2.10;;;25.60;51.10;;;;;;4994155;28;20447;-82
2021/04/25 04:09:05;;;;;;;1.90;1.70;;;25.60;51.20;;;;;;4993927;28;20447;-83
2021/04/25 04:11:31;;;;;;;2.23;2.03;;;25.60;51.20;;;;;;4994149;28;20440;-83
2021/04/25 04:13:58;;;;;;;2.67;1.80;;;25.60;51.20;;;;;;4994157;28;20460;-83
2021/04/25 04:16:25;;;;;;;2.00;1.80;;;25.60;51.20;;;;;;4994241;28;20440;-83
2021/04/25 04:18:52;;;;;;;2.33;2.00;;;25.60;51.20;;;;;;4993869;28;20443;-83
2021/04/25 04:21:18;;;;;;;1.73;1.63;;;25.70;51.20;;;;;;4994163;28;20509;-83
2021/04/25 04:23:44;;;;;;;2.33;2.03;;;25.60;51.20;;;;;;4994111;28;20505;-82
2021/04/25 04:26:11;;;;;;;2.03;1.80;;;25.60;51.20;;;;;;4994043;28;20939;-82
2021/04/25 04:28:37;;;;;;;2.20;1.90;;;25.60;51.10;;;;;;4993590;28;20455;-82
2021/04/25 04:31:05;;;;;;;2.30;2.10;;;25.50;51.10;;;;;;4993798;28;20494;-82
2021/04/25 04:33:31;;;;;;;1.93;1.83;;;25.50;51.10;;;;;;4993843;28;20444;-82
2021/04/25 04:35:57;;;;;;;2.37;2.17;;;25.50;51.10;;;;;;4993962;28;20436;-82
2021/04/25 04:38:24;;;;;;;2.90;2.70;;;25.70;51.80;;;;;;4994004;28;20988;-83
2021/04/25 04:40:50;;;;;;;1.97;1.87;;;25.60;51.20;;;;;;4993860;28;20440;-83
2021/04/25 04:43:16;;;;;;;2.03;1.93;;;25.50;51.10;;;;;;4993806;28;20479;-81
2021/04/25 04:45:43;;;;;;;2.03;1.83;;;25.50;51.20;;;;;;4993684;28;20467;-81
2021/04/25 04:48:10;;;;;;;1.77;1.67;;;25.50;51.20;;;;;;4993629;28;20443;-81
2021/04/25 04:50:36;;;;;;;1.97;1.73;;;25.50;51.10;;;;;;4994030;28;20538;-81
2021/04/25 04:53:03;;;;;;;2.17;2.00;;;25.50;51.20;;;;;;4993979;28;20440;-82
2021/04/25 04:55:29;;;;;;;2.37;2.17;;;25.50;51.20;;;;;;4993635;28;20904;-82
2021/04/25 04:57:55;;;;;;;2.10;1.90;;;25.50;51.10;;;;;;4995072;28;20534;-81
2021/04/25 05:00:22;;;;;;;1.87;1.77;;;25.50;51.20;;;;;;4997452;28;20974;-81
2021/04/25 05:02:48;;;;;;;2.30;1.90;;;25.50;51.20;;;;;;4997640;28;20915;-82
2021/04/25 05:05:15;;;;;;;1.93;1.77;;;25.50;51.20;;;;;;4997464;28;20451;-81
2021/04/25 05:07:42;;;;;;;1.80;1.70;;;25.50;51.20;;;;;;4997466;28;20882;-81
2021/04/25 05:10:09;;;;;;;2.67;2.47;;;25.50;51.10;;;;;;4997250;28;20991;-81
2021/04/25 05:12:35;;;;;;;2.30;2.10;;;25.50;51.20;;;;;;4997314;28;20444;-81
2021/04/25 05:15:02;;;;;;;2.43;2.30;;;25.50;51.20;;;;;;4997286;28;20464;-81
2021/04/25 05:17:28;;;;;;;1.97;1.83;;;25.50;51.20;;;;;;4997295;28;20448;-81
2021/04/25 05:19:55;;;;;;;2.30;1.93;;;25.50;51.20;;;;;;4997198;28;20807;-81
2021/04/25 05:22:22;;;;;;;1.83;1.70;;;25.50;51.20;;;;;;4997226;28;20930;-81
2021/04/25 05:24:49;;;;;;;2.53;2.30;;;25.50;51.20;;;;;;4997579;28;20784;-82
2021/04/25 05:27:15;;;;;;;2.30;2.10;;;25.50;51.20;;;;;;4997141;28;20443;-82
2021/04/25 05:29:42;;;;;;;1.87;1.77;;;25.50;51.20;;;;;;4996903;28;20497;-81
2021/04/25 05:32:08;;;;;;;2.33;2.13;;;25.50;51.20;;;;;;4997133;28;20451;-82
2021/04/25 05:34:34;;;;;;;2.30;2.10;;;25.50;51.30;;;;;;4997093;28;20448;-81
2021/04/25 05:37:01;;;;;;;1.80;1.70;;;25.50;51.30;;;;;;4997062;28;20439;-81
2021/04/25 05:39:28;;;;;;;2.30;2.10;;;25.50;51.20;;;;;;4996914;28;20934;-81
2021/04/25 05:41:54;;;;;;;2.57;2.37;;;25.50;51.20;;;;;;4996971;28;20438;-81
2021/04/25 05:44:21;;;;;;;2.17;1.97;;;25.50;51.20;;;;;;4996983;28;20858;-81
2021/04/25 05:46:47;;;;;;;2.90;2.53;;;25.50;51.20;;;;;;4996742;28;20436;-81
2021/04/25 05:49:13;;;;;;;1.83;1.70;;;25.50;51.30;;;;;;4996583;28;20457;-81
2021/04/25 05:51:39;;;;;;;1.63;1.40;;;25.50;51.20;;;;;;4996678;28;20448;-81
2021/04/25 05:54:06;;;;;;;2.73;2.50;;;25.50;51.20;;;;;;4996749;28;20469;-82
2021/04/25 05:56:34;;;;;;;2.13;1.83;;;25.50;51.20;;;;;;4996867;28;20436;-81
2021/04/25 05:59:00;;;;;;;2.30;2.03;;;25.50;51.20;;;;;;4996583;28;20448;-81
2021/04/25 06:01:27;;;;;;;2.03;1.83;;;25.50;51.20;;;;;;4996288;28;20499;-82
2021/04/25 06:03:53;;;;;;;2.07;1.87;;;25.50;51.30;;;;;;4996520;28;20435;-82
2021/04/25 06:06:19;;;;;;;2.07;1.97;;;25.50;51.20;;;;;;4996509;28;20448;-82
2021/04/25 06:08:46;;;;;;;2.73;2.07;;;25.50;51.30;;;;;;4995398;28;20514;-82
2021/04/25 06:11:12;;;;;;;2.47;2.27;;;25.50;51.20;;;;;;4996083;28;20820;-82
2021/04/25 06:13:39;;;;;;;2.10;1.90;;;25.50;51.30;;;;;;4996323;28;20443;-83
2021/04/25 06:16:05;;;;;;;1.90;1.70;;;25.60;51.30;;;;;;4996435;28;20501;-82
2021/04/25 06:18:32;;;;;;;2.30;2.10;;;25.60;51.30;;;;;;4996208;28;20535;-83
2021/04/25 06:20:58;;;;;;;2.00;1.83;;;25.50;51.20;;;;;;4996131;28;20440;-82
2021/04/25 06:23:25;;;;;;;2.27;2.07;;;25.50;51.20;;;;;;4996366;28;20444;-82
2021/04/25 06:25:51;;;;;;;1.70;1.60;;;25.60;51.30;;;;;;4996031;28;20440;-82
2021/04/25 06:28:17;;;;;;;2.07;1.87;;;25.50;51.30;;;;;;4995977;28;20447;-82
2021/04/25 06:30:44;;;;;;;2.03;1.77;;;25.50;51.20;;;;;;4995908;28;20488;-82
2021/04/25 06:33:11;;;;;;;2.47;2.27;;;25.60;51.30;;;;;;4995867;28;20460;-82
2021/04/25 06:35:38;;;;;;;2.23;2.00;;;25.60;51.30;;;;;;4995936;28;20452;-82
2021/04/25 06:38:04;;;;;;;2.37;2.17;;;25.60;51.20;;;;;;4995827;28;20444;-82
2021/04/25 06:40:33;;;;;;;2.17;2.03;;;25.50;51.20;;;;;;4995664;28;20452;-82
2021/04/25 06:43:00;;;;;;;2.23;2.03;;;25.50;51.80;;;;;;4995974;28;20514;-82
2021/04/25 06:45:26;;;;;;;2.03;1.93;;;25.60;51.30;;;;;;4995649;28;20469;-82
2021/04/25 06:47:54;;;;;;;1.80;1.70;;;25.60;51.20;;;;;;4995465;28;20458;-84
2021/04/25 06:50:20;;;;;;;1.70;1.53;;;25.60;51.30;;;;;;4995582;28;20492;-82
2021/04/25 06:52:48;;;;;;;2.43;1.97;;;25.50;51.80;;;;;;4995414;28;20450;-82
2021/04/25 06:55:17;;;;;;;1.80;1.70;;;25.50;51.20;;;;;;4995457;28;20436;-82
2021/04/25 06:57:44;;;;;;;1.87;1.57;;;25.60;51.30;;;;;;4995405;28;20527;-81
2021/04/25 07:00:12;;;;;;;2.17;2.07;;;25.70;51.30;;;;;;4995197;28;20521;-81
2021/04/25 07:02:39;;;;;;;2.17;1.80;;;25.60;51.30;;;;;;4995354;28;20447;-82
2021/04/25 07:05:08;;;;;;;2.20;2.00;;;25.60;51.30;;;;;;4995337;28;20440;-81
2021/04/25 07:07:34;;;;;;;2.57;2.10;;;25.60;51.30;;;;;;4995122;28;20938;-82
2021/04/25 07:10:02;;;;;;;2.00;1.73;;;25.50;51.30;;;;;;4994937;28;20479;-82
2021/04/25 07:12:28;;;;;;;1.73;1.63;;;25.60;51.30;;;;;;4995172;28;20811;-83
2021/04/25 07:14:57;;;;;;;2.13;1.93;;;25.50;51.20;;;;;;4995040;28;20463;-81
2021/04/25 07:17:23;;;;;;;1.93;1.83;;;25.60;51.40;;;;;;4995092;28;20455;-83
2021/04/25 07:19:49;;;;;;;1.70;1.60;;;25.50;51.20;;;;;;4994938;28;21016;-81
2021/04/25 07:22:16;;;;;;;1.60;1.50;;;25.50;51.20;;;;;;4994825;28;20459;-82
2021/04/25 07:24:43;;;;;;;2.20;2.00;;;25.60;51.30;;;;;;4995076;28;20511;-81
2021/04/25 07:27:09;;;;;;;2.53;2.27;;;25.50;51.20;;;;;;4995105;28;20444;-82
2021/04/25 07:29:35;;;;;;;2.53;1.63;;;25.50;51.30;;;;;;4994743;28;20436;-82
2021/04/25 07:32:01;;;;;;;2.10;1.90;;;25.50;51.20;;;;;;4994896;28;20905;-82
2021/04/25 07:34:28;;;;;;;2.00;1.90;;;25.50;51.20;;;;;;4994827;28;20440;-81
2021/04/25 07:36:54;;;;;;;2.60;1.70;;;25.50;51.80;;;;;;4994679;28;20445;-82
2021/04/25 07:39:21;;;;;;;1.57;1.47;;;25.50;51.20;;;;;;4994872;28;20440;-83
2021/04/25 07:41:48;;;;;;;1.97;1.83;;;25.50;51.20;;;;;;4994564;28;20444;-80
2021/04/25 07:44:16;;;;;;;3.23;2.40;;;25.50;51.20;;;;;;4994525;28;20464;-79
2021/04/25 07:46:42;;;;;;;1.93;1.77;;;25.50;50.40;;;;;;4994519;28;20523;-80
2021/04/25 07:49:09;;;;;;;1.60;1.37;;;25.50;50.50;;;;;;4994309;28;20499;-84
2021/04/25 07:51:36;;;;;;;1.70;1.60;;;25.50;50.90;;;;;;4995875;28;20574;-83
2021/04/25 07:54:02;;;;;;;3.50;2.00;;;25.50;51.10;;;;;;4995119;28;20490;-84
2021/04/25 07:56:29;;;;;;;1.87;1.73;;;25.50;50.80;;;;;;4999632;28;20807;-84
2021/04/25 07:58:56;;;;;;;1.70;1.60;;;25.50;50.60;;;;;;4994920;28;20437;-83
2021/04/25 08:01:24;;;;;;;4.40;1.87;;;25.50;50.60;;;;;;4994267;28;20483;-85
2021/04/25 08:03:50;;;;;;;2.40;1.90;;;25.40;50.40;;;;;;4994200;28;20476;-85
2021/04/25 08:06:16;;;;;;;6.13;2.13;;;25.40;50.30;;;;;;4994320;28;20444;-83
2021/04/25 08:08:43;;;;;;;3.97;1.97;;;25.40;50.30;;;;;;4994294;28;20470;-83
2021/04/25 08:11:09;;;;;;;2.13;1.60;;;25.40;50.90;;;;;;4994208;28;20522;-83
2021/04/25 08:13:36;;;;;;;2.10;1.30;;;25.40;50.40;;;;;;4994187;28;20440;-83
2021/04/25 08:16:03;;;;;;;1.63;1.43;;;25.40;50.50;;;;;;4994403;28;20808;-83
2021/04/25 08:18:30;;;;;;;2.00;1.60;;;25.50;50.50;;;;;;4994132;28;20435;-83
2021/04/25 08:20:56;;;;;;;2.20;1.50;;;25.50;50.60;;;;;;4994271;28;20446;-85
2021/04/25 08:23:23;;;;;;;2.47;1.50;;;25.50;50.50;;;;;;4994293;28;20811;-85
2021/04/25 08:25:49;;;;;;;1.97;1.60;;;25.50;50.40;;;;;;4994139;28;20448;-83
2021/04/25 08:28:15;;;;;;;4.43;1.73;;;25.50;50.20;;;;;;4993797;28;20832;-82
2021/04/25 08:30:42;;;;;;;5.40;1.67;;;25.50;49.50;;;;;;4994138;28;20497;-82
2021/04/25 08:33:09;;;;;;;2.27;1.63;;;25.50;49.20;;;;;;4993222;28;20527;-82
2021/04/25 08:35:35;;;;;;;1.30;1.20;;;25.40;49.00;;;;;;4994033;28;20945;-83
2021/04/25 08:38:02;;;;;;;2.00;1.57;;;25.40;49.00;;;;;;4993837;28;20451;-82
2021/04/25 08:40:28;;;;;;;2.70;1.47;;;25.40;49.00;;;;;;4993970;28;20448;-82
2021/04/25 08:42:54;;;;;;;3.60;1.80;;;25.40;49.10;;;;;;4994224;28;20483;-83
2021/04/25 08:45:21;;;;;;;1.70;1.60;;;25.40;49.00;;;;;;4993798;28;20472;-83
2021/04/25 08:47:54;;;;;;;3.80;1.77;;;25.40;49.00;;;;;;4993690;28;20456;-82
2021/04/25 08:50:21;;;;;;;5.63;1.63;;;25.30;48.90;;;;;;4993977;28;20487;-83
2021/04/25 08:52:48;;;;;;;2.87;1.50;;;25.30;49.50;;;;;;4993811;28;20450;-82
2021/04/25 08:55:16;;;;;;;1.70;1.57;;;25.30;48.90;;;;;;4993735;28;20493;-82
2021/04/25 08:57:43;;;;;;;5.63;1.53;;;25.30;48.90;;;;;;4993820;28;20531;-83
2021/04/25 09:00:11;;;;;;;2.00;1.43;;;25.30;48.90;;;;;;4993453;28;20478;-82
2021/04/25 09:02:37;;;;;;;2.53;1.80;;;25.30;49.50;;;;;;4993588;28;20449;-82
2021/04/25 09:05:05;;;;;;;2.63;1.80;;;25.30;48.90;;;;;;4990249;28;20531;-82
2021/04/25 09:07:31;;;;;;;2.07;1.80;;;25.30;48.90;;;;;;4974231;28;20445;-82
2021/04/25 09:10:01;;;;;;;3.40;1.60;;;25.30;48.80;;;;;;4974329;28;20482;-82
2021/04/25 09:12:32;;;;;;;1.60;1.30;;;25.30;48.90;;;;;;4974146;28;20454;-83
2021/04/25 09:14:58;;;;;;;1.97;1.57;;;25.30;48.80;;;;;;4974008;28;20465;-82
2021/04/25 09:17:25;;;;;;;3.83;1.63;;;25.30;48.90;;;;;;4974022;28;20501;-82
2021/04/25 09:19:53;;;;;;;2.10;1.60;;;25.40;49.00;;;;;;4973890;28;20808;-82
2021/04/25 09:22:23;;;;;;;4.80;1.27;;;25.40;49.10;;;;;;4973843;28;20926;-82
2021/04/25 09:24:50;;;;;;;1.80;1.57;;;25.40;49.10;;;;;;4973802;28;20463;-82
2021/04/25 09:27:27;;;;;;;1.60;1.43;;;25.50;49.40;;;;;;4973602;28;20464;-82
2021/04/25 09:29:58;;;;;;;2.13;1.47;;;25.60;50.00;;;;;;4973657;28;20437;-82
2021/04/25 09:32:26;;;;;;;2.50;1.63;;;25.60;50.00;;;;;;4973925;28;20837;-82
2021/04/25 09:35:07;;;;;;;2.50;1.90;;;25.70;50.20;;;;;;4974082;28;20445;-82
2021/04/25 09:37:36;;;;;;;1.23;1.10;;;25.80;50.20;;;;;;4974363;28;20912;-85
2021/04/25 09:40:06;;;;;;;1.60;1.10;;;25.80;49.70;;;;;;4973946;28;20445;-86
2021/04/25 09:42:33;;;;;;;1.53;1.40;;;25.90;49.40;;;;;;4974301;28;20433;-86
2021/04/25 09:44:59;;;;;;;2.60;1.10;;;25.90;49.30;;;;;;4976865;28;20465;-84
2021/04/25 09:47:34;;;;;;;2.30;1.57;;;25.90;49.00;;;;;;4977307;28;20804;-85
2021/04/25 09:50:01;;;;;;;2.07;1.57;;;25.90;48.70;;;;;;4977263;28;20472;-84
2021/04/25 09:52:37;;;;;;;1.33;1.23;;;25.90;48.70;;;;;;4977720;28;20477;-84
2021/04/25 09:55:17;;;;;;;4.67;1.90;;;25.90;48.70;;;;;;4977130;28;20483;-82
2021/04/25 09:57:44;;;;;;;2.97;2.03;;;25.90;49.00;;;;;;4977240;28;20457;-85
2021/04/25 10:00:11;;;;;;;5.70;1.40;;;25.90;49.20;;;;;;4976982;28;20477;-82
2021/04/25 10:03:00;;;;;;;2.40;1.73;;;25.90;48.70;;;;;;4977105;28;20445;-83
2021/04/25 10:05:28;;;;;;;5.33;1.90;;;26.00;49.50;;;;;;4977085;28;20496;-83
2021/04/25 10:07:55;;;;;;;3.80;1.20;;;26.00;50.00;;;;;;4976602;28;20449;-82
2021/04/25 10:10:22;;;;;;;3.07;1.70;;;26.10;49.90;;;;;;4975534;28;20495;-83
2021/04/25 10:12:50;;;;;;;3.00;1.20;;;26.30;49.80;;;;;;4974913;28;20473;-83
2021/04/25 10:15:17;;;;;;;2.93;1.80;;;26.50;49.80;;;;;;4976291;28;20561;-83
2021/04/25 10:17:45;;;;;;;4.63;1.50;;;26.50;50.40;;;;;;4976733;28;20444;-83
2021/04/25 10:20:13;;;;;;;2.13;1.60;;;26.60;49.90;;;;;;4976546;28;20451;-83
2021/04/25 10:22:44;;;;;;;3.23;1.30;;;26.60;50.00;;;;;;4976668;28;20898;-83
2021/04/25 10:25:15;;;;;;;3.00;1.50;;;26.70;50.00;;;;;;4976635;28;20438;-83
2021/04/25 10:27:45;;;;;;;1.50;1.30;;;26.70;50.00;;;;;;4976382;28;20477;-83
2021/04/25 10:30:14;;;;;;;2.20;1.30;;;26.80;50.00;;;;;;4976422;28;20486;-83
2021/04/25 10:32:45;;;;;;;2.57;1.50;;;26.90;50.20;;;;;;4976417;28;20447;-83
2021/04/25 10:35:17;;;;;;;2.23;1.20;;;26.90;50.10;;;;;;4976452;28;20449;-83
2021/04/25 10:37:44;;;;;;;2.27;1.70;;;27.00;50.10;;;;;;4976322;28;20454;-83
2021/04/25 10:40:23;;;;;;;2.30;1.60;;;27.10;50.20;;;;;;4976254;28;20450;-83
2021/04/25 10:42:54;;;;;;;1.40;1.30;;;27.10;50.20;;;;;;4976206;28;20451;-83
2021/04/25 10:45:30;;;;;;;1.40;1.20;;;27.20;50.30;;;;;;4976123;28;20483;-83
2021/04/25 10:48:28;;;;;;;1.30;1.20;;;27.20;50.20;;;;;;4975967;28;20455;-83
2021/04/25 10:50:56;;;;;;;2.07;1.30;;;27.20;50.20;;;;;;4943331;28;20851;-83
2021/04/25 10:53:31;;;;;;;1.60;1.13;;;27.30;50.30;;;;;;4976059;28;20933;-83
2021/04/25 10:56:33;;;;;;;1.60;1.40;;;27.40;50.20;;;;;;4975444;28;20457;-83
2021/04/25 10:59:31;;;;;;;1.40;1.30;;;27.50;50.20;;;;;;4975976;28;20486;-83
2021/04/25 11:02:02;;;;;;;1.23;1.13;;;27.50;50.20;;;;;;4975772;28;20566;-83
2021/04/25 11:04:58;;;;;;;1.30;0.93;;;27.50;50.30;;;;;;4975939;28;20479;-83
2021/04/25 11:07:41;;;;;;;3.33;1.20;;;27.50;50.20;;;;;;4975730;28;20460;-83
2021/04/25 11:10:08;;;;;;;1.80;1.13;;;27.50;50.30;;;;;;4975654;28;20556;-83
2021/04/25 11:12:38;;;;;;;1.30;1.20;;;27.50;50.30;;;;;;4975744;28;20538;-83
2021/04/25 11:15:05;;;;;;;1.53;1.40;;;27.60;50.40;;;;;;4975597;28;20471;-83
2021/04/25 11:17:32;;;;;;;1.23;1.10;;;27.60;50.40;;;;;;4975580;28;20456;-83
2021/04/25 11:19:58;;;;;;;1.30;1.00;;;27.60;50.40;;;;;;4975512;28;20437;-83
2021/04/25 11:22:42;;;;;;;1.73;1.03;;;27.70;50.40;;;;;;4975416;28;20953;-83
2021/04/25 11:25:26;;;;;;;1.63;1.43;;;27.70;50.40;;;;;;4975506;28;20454;-83
2021/04/25 11:27:53;;;;;;;1.83;1.00;;;27.70;50.40;;;;;;4975295;28;20459;-83
2021/04/25 11:30:35;;;;;;;1.77;1.23;;;27.60;50.40;;;;;;4975391;28;20492;-83
2021/04/25 11:33:32;;;;;;;1.80;1.30;;;27.70;50.50;;;;;;4975344;28;20453;-83
2021/04/25 11:36:36;;;;;;;2.40;1.30;;;27.70;50.50;;;;;;4975328;28;21009;-83
2021/04/25 11:39:04;;;;;;;2.10;1.37;;;27.70;50.60;;;;;;4975249;28;20916;-83
2021/04/25 11:41:31;;;;;;;1.20;1.00;;;27.60;50.60;;;;;;4975215;28;20444;-83
2021/04/25 11:43:58;;;;;;;2.10;1.37;;;27.60;50.70;;;;;;4974705;28;20471;-83
2021/04/25 11:46:35;;;;;;;1.20;1.10;;;27.60;50.80;;;;;;4975032;28;20456;-83
2021/04/25 11:49:03;;;;;;;1.60;1.30;;;27.60;50.80;;;;;;4974815;28;20451;-83
2021/04/25 11:51:30;;;;;;;1.40;1.30;;;27.50;50.90;;;;;;4974868;28;20491;-83
2021/04/25 11:53:56;;;;;;;1.20;0.90;;;27.50;50.90;;;;;;4974892;28;20447;-83
2021/04/25 11:56:28;;;;;;;1.23;1.00;;;27.50;50.90;;;;;;4974940;28;20437;-83
2021/04/25 11:59:09;;;;;;;1.40;1.00;;;27.50;51.00;;;;;;4974839;28;20443;-83
2021/04/25 12:01:36;;;;;;;1.67;1.03;;;27.60;51.10;;;;;;4974770;28;20836;-83
2021/04/25 12:04:02;;;;;;;1.30;1.20;;;27.50;51.00;;;;;;4974803;28;20440;-83
2021/04/25 12:06:44;;;;;;;1.53;1.30;;;27.60;51.00;;;;;;4974364;28;20452;-83
2021/04/25 12:09:11;;;;;;;1.60;1.20;;;27.60;51.10;;;;;;4974374;28;20462;-83
2021/04/25 12:11:37;;;;;;;2.03;1.10;;;27.60;51.10;;;;;;4974769;28;20840;-83
2021/04/25 12:14:16;;;;;;;1.73;1.10;;;27.60;51.10;;;;;;4974703;28;20474;-83
2021/04/25 12:16:43;;;;;;;1.40;1.10;;;27.60;51.00;;;;;;4974620;28;20448;-83
2021/04/25 12:19:19;;;;;;;1.57;1.20;;;27.60;51.10;;;;;;4974398;28;20497;-84
2021/04/25 12:21:46;;;;;;;1.20;1.00;;;27.60;51.10;;;;;;4974635;28;20448;-83
2021/04/25 12:24:12;;;;;;;1.07;0.90;;;27.70;51.20;;;;;;4974495;28;20955;-83
2021/04/25 12:26:42;;;;;;;1.70;1.27;;;27.70;51.20;;;;;;4974539;28;20451;-83
2021/04/25 12:29:09;;;;;;;1.47;1.00;;;27.60;51.10;;;;;;4974449;28;20820;-83
2021/04/25 12:31:43;;;;;;;1.10;0.80;;;27.60;51.20;;;;;;4974443;28;20490;-83
2021/04/25 12:34:14;;;;;;;1.77;1.00;;;27.60;51.20;;;;;;4974411;28;20455;-83
2021/04/25 12:36:49;;;;;;;1.27;1.00;;;27.70;51.30;;;;;;4974446;28;20455;-83
2021/04/25 12:39:15;;;;;;;1.50;0.97;;;27.70;51.20;;;;;;4974332;28;20492;-84
2021/04/25 12:41:44;;;;;;;1.30;0.97;;;27.60;51.20;;;;;;4974282;28;20864;-82
2021/04/25 12:44:11;;;;;;;1.30;1.20;;;27.60;49.60;;;;;;4974298;28;20468;-83
2021/04/25 12:46:37;;;;;;;1.53;1.00;;;27.60;50.40;;;;;;4974320;28;20943;-83
2021/04/25 12:49:07;;;;;;;1.90;1.10;;;27.60;50.60;;;;;;4974162;28;20436;-83
2021/04/25 12:51:45;;;;;;;1.17;0.90;;;27.60;50.70;;;;;;4974144;28;20531;-83
2021/04/25 12:54:13;;;;;;;2.87;1.13;;;27.60;50.80;;;;;;4974311;28;20498;-82